x

Nw Lake Ontario Ajax (45159) Weather Station

2:00am - Fri 29th May 2015 All times are CDT. -5 hours from GMT.

  • Peak Period 5s
  • Wind
    7mph, 9mph gusts
  • Sea Temp 48°f
  • Air Temp 53°f
  • Sea Pressure 1024.3mb
  • Nw Lake Ontario Ajax
  • Nw Lake Ontario Ajax

More Historic Weather Station data

Upgrade to MSW Pro to gain access to the past 30 days of data for over 8000 Wavebouys and Weather Stations around the globe.

Join Pro

Comparision Forecast

View Surf forecast
   
Fri 05/29 2:00am  -  5s 7 9 mph 1024.3mb 48f 53f
1:00am  -  2s 4 7 mph 1024.5mb 48f 52f
12:00am  -  3s 2 4 mph 1024.8mb 48f 53f
Thu 05/28 11:00pm  -  2s 4
mph
1025mb 47f 57f
10:00pm 0.3ft 2s 2 4 mph 1025.4mb 47f 55f
9:00pm 0.3ft 2s  -  2 mph 1024.8mb 47f 55f
8:00pm 0.3ft 2s 2 4 mph 1024.2mb 47f 56f
7:00pm 0.3ft 2s 2
mph
1024.2mb 48f 55f
6:00pm 0.3ft 2s  -  2 mph 1024.1mb 48f 56f
5:00pm 0.3ft 2s 2 4 mph 1023.5mb 48f 54f
4:00pm 0.3ft 2s 4 7 mph 1023.8mb 48f 52f
3:00pm 0.3ft 2s 4 7 mph 1023.9mb 47f 52f
2:00pm 0.3ft 2s 7 9 mph 1024.5mb 47f 50f
1:00pm 0.3ft 2s 7 9 mph 1024.3mb 47f 50f
12:00pm 0.3ft 3s 11
mph
1024.2mb 47f 50f
11:00am 0.7ft 3s 7 9 mph 1023.7mb 47f 50f
10:00am 0.7ft 3s 9
mph
1023.2mb 46f 60f
9:00am 0.7ft 3s 7 9 mph 1022.8mb 45f 59f
8:00am 1ft 3s 11 13 mph 1022mb 45f 57f
7:00am 1.3ft 3s 16 20 mph 1021.1mb 45f 56f
6:00am 1.3ft 3s 16 20 mph 1020.1mb 45f 55f
5:00am 1.3ft 3s 16 18 mph 1018.8mb 46f 55f
4:00am 1.3ft 3s 16 22 mph 1017.6mb 46f 56f
3:00am 1.6ft 4s 11 13 mph 1016.9mb 45f 56f
2:00am 1.6ft 4s 13 16 mph 1016.2mb 46f 50f
1:00am 1.6ft 4s 11 13 mph 1015.8mb 46f 49f
12:00am 1.6ft 4s 13 16 mph 1015.6mb 42f 48f
Wed 05/27 11:00pm 1.6ft 4s 11
mph
1015.7mb 42f 47f
10:00pm 2ft 4s 13 16 mph 1015.5mb 42f 49f
9:00pm 2.5ft 4s 16 18 mph 1014.5mb 43f 51f
8:00pm 2.5ft 4s 13 16 mph 1014.6mb 43f 49f
7:00pm 2.5ft 4s 16 20 mph 1014.4mb 43f 52f
6:00pm 2ft 4s 16 20 mph 1014.2mb 43f 53f
5:00pm 2.5ft 4s 18 20 mph 1013.4mb 43f 54f
4:00pm 2.5ft 4s 18 20 mph 1013.2mb 43f 53f
3:00pm 2ft 4s 18 22 mph 1013.4mb 43f 54f
2:00pm 1.6ft 3s 18 22 mph 1013.9mb 43f 54f
1:00pm 1.3ft 3s 18 20 mph 1014.5mb 43f 54f
12:00pm 1ft 3s 16 20 mph 1015.3mb 43f 53f
11:00am 1ft 3s 16 18 mph 1015.5mb 43f 52f
10:00am 1.3ft 3s 13
mph
1015.5mb 43f 50f
9:00am 1ft 3s 9 13 mph 1015.4mb 43f 49f
8:00am 0.7ft 3s 9 11 mph 1015.4mb 43f 48f
7:00am 0.3ft 2s 9
mph
1015mb 44f 50f
6:00am 0.3ft 2s 7
mph
1014.4mb 44f 51f
5:00am 0.3ft 2s 4 7 mph 1014.1mb 44f 50f
4:00am 0.3ft 2s 7 9 mph 1014mb 44f 49f
3:00am 0.3ft 2s 7
mph
1013.6mb 44f 48f
2:00am 0.3ft 2s 7 9 mph 1013.4mb 44f 47f
1:00am 0.3ft 2s 9
mph
1013.8mb 44f 50f
12:00am 0.3ft 3s 7 9 mph 1014.4mb 44f 49f
Tue 05/26 11:00pm 0.3ft 2s 7
mph
1014.8mb 44f 49f
10:00pm 0.3ft 3s 7
mph
1015.2mb 44f 49f
9:00pm 0.3ft 3s 7 9 mph 1015.7mb 45f 48f
8:00pm 0.3ft 2s 9 11 mph 1015.1mb 46f 47f
7:00pm 0.3ft 2s 4
mph
1015.1mb 47f 51f
6:00pm 0.3ft 2s 2 4 mph 1015.1mb 46f 53f
5:00pm 0.3ft 2s 2 4 mph 1015.6mb 46f 56f
4:00pm 0.3ft 2s 2 9 mph 1016.2mb 45f 54f
3:00pm 0.3ft 2s 9 11 mph 1017mb 46f 56f
2:00pm 0.3ft 2s 9
mph
1017.5mb 45f 54f
1:00pm 0.3ft 2s 7 9 mph 1018mb 44f 51f
12:00pm 0.3ft 2s 9
mph
1018.1mb 44f 50f
11:00am 0.7ft 3s 9 11 mph 1018.5mb 44f 50f
10:00am 0.7ft 2s  -  2 mph 1018.5mb 43f 50f
9:00am 0.7ft 3s 9
mph
1018.4mb 43f 48f
8:00am 0.7ft 3s 11 13 mph 1018.7mb 43f 48f
7:00am 0.7ft 3s 9
mph
1018.4mb 43f 48f
6:00am 0.7ft 3s 9
mph
1018mb 42f 48f
5:00am 0.7ft 3s 11
mph
1017.4mb 42f 48f
4:00am 0.7ft 2s 11 13 mph 1016.8mb 42f 49f
3:00am 0.7ft 3s 16
mph
1016mb 42f 51f
2:00am 0.7ft 4s 13 16 mph 1015.6mb 42f 51f
1:00am 1ft 4s 11 13 mph 1015.5mb 42f 51f
12:00am 0.7ft 4s 11 13 mph 1015.2mb 43f 53f
Mon 05/25 11:00pm 1ft 4s 11 13 mph 1014.9mb 43f 53f
10:00pm 1ft 4s 9 11 mph 1014.5mb 43f 52f
9:00pm 1.3ft 4s 11 13 mph 1014.6mb 43f 51f
8:00pm 1ft 3s 11 13 mph 1013.9mb 43f 50f
7:00pm 0.7ft 3s 16 18 mph 1013.6mb 44f 53f
6:00pm 0.3ft 3s 7 9 mph 1013.9mb 44f 49f
5:00pm 0.3ft 3s 7 9 mph 1014.5mb 44f 49f
4:00pm 0.3ft 3s 7
mph
1014.8mb 44f 48f
3:00pm 0.7ft 3s 9 11 mph 1015.5mb 44f 46f
2:00pm 0.7ft 3s 9 11 mph 1015.8mb 45f 46f
1:00pm 0.7ft 3s 9
mph
1016.4mb 45f 46f
12:00pm 0.7ft 3s 9 11 mph 1016.7mb 45f 47f
11:00am 0.7ft 3s 9 13 mph 1017.2mb 45f 46f
10:00am 0.7ft 2s 11 13 mph 1017.9mb 45f 46f
9:00am 0.7ft 2s 11 16 mph 1018.9mb 45f 47f